SKCG METAR and TAF | Updated Today

SKCG METAR

Rafael Nuñez International Airport

Observation time: 8 min. ago

SKCG 070900Z VRB02KT CAVOK 25/24 Q1008 RMK A2977

Need help? Read our tutorial on how to read METARs or read the parsed version below.

Rafael Nuñez International Airport (SKCG) METAR

  • Weather conditions on Tue, 07 Dec 2021 09:00:00 +0000 (8 min. ago):
  • Present conditions: Dry
  • Clouds: Clear skies
  • Visibility: Greater than 10 km
  • Wind: Variable at 2 knots
  • Temperature: 25 celsius
  • Dew point: 24 celsius
  • Pressure: 1008 inHg
  • Remarks: A2977


Useful to know...

SKCG TAF

Rafael Nuñez International Airport

TAF SKCG 070430Z 0706/0806 VRB02KT 9999 FEW017 BECMG 0714/0716 35010KT TEMPO 0718/0721 SCT015CB TX32/0718Z TN25/0710Z
Observation time: 4:38 hr. ago
Need help? Read our tutorial on how to read TAFs or read the parsed version below.

Parsed version of TAF for Rafael Nuñez International Airport (SKCG)

  • From 07 December at 06:00 UTC, to day 08 of the month at 06:00 UTC
  • Clouds: A few at 518 meters
  • Visibility: Greater than 10 km
  • Wind: Variable at 2
  • Expected to arise soon, from 07 December at 14:00 UTC, to day 07 of the month at 16:00 UTC
  • Wind: 350 degrees at 10
  • Expected to arise temporarily, from 07 December at 18:00 UTC, to day 07 of the month at 21:00 UTC
  • Clouds: Scattered at 457 meters, cumulonimbus

Airports near SKCG

No airports found within 100nm radius.